createdAt,value
2023-05-25T00:01:38.206Z,12.60
2023-05-25T00:04:05.554Z,11.77
2023-05-25T00:06:33.125Z,10.65
2023-05-25T00:09:00.450Z,13.80
2023-05-25T00:11:27.666Z,11.18
2023-05-25T00:13:55.183Z,11.80
2023-05-25T00:16:22.494Z,12.43
2023-05-25T00:18:49.772Z,13.88
2023-05-25T00:21:16.966Z,12.15
2023-05-25T00:23:44.129Z,12.35
2023-05-25T00:26:11.329Z,12.35
2023-05-25T00:28:38.546Z,13.75
2023-05-25T00:31:05.854Z,14.13
2023-05-25T00:33:32.982Z,16.60
2023-05-25T00:36:00.238Z,10.93
2023-05-25T00:38:27.522Z,11.32
2023-05-25T00:40:57.777Z,10.98
2023-05-25T00:43:24.960Z,16.77
2023-05-25T00:45:52.131Z,9.30
2023-05-25T00:48:19.408Z,10.35
2023-05-25T00:50:47.388Z,11.80
2023-05-25T00:53:14.994Z,13.65
2023-05-25T00:56:08.371Z,8.68
2023-05-25T00:58:37.353Z,14.13
2023-05-25T01:01:06.342Z,14.50
2023-05-25T01:03:37.982Z,12.00
2023-05-25T01:06:08.221Z,13.13
2023-05-25T01:08:36.477Z,13.13
2023-05-25T01:11:05.000Z,11.80
2023-05-25T01:13:32.809Z,10.63
2023-05-25T01:16:00.206Z,12.63
2023-05-25T01:18:28.333Z,13.48
2023-05-25T01:20:58.181Z,12.15
2023-05-25T01:23:28.897Z,12.95
2023-05-25T01:26:02.390Z,11.07
2023-05-25T01:28:36.217Z,9.65
2023-05-25T01:31:04.263Z,11.93
2023-05-25T01:33:32.782Z,14.18
2023-05-25T01:36:01.023Z,12.00
2023-05-25T01:38:28.212Z,12.65
2023-05-25T01:40:55.482Z,11.60
2023-05-25T01:43:23.042Z,14.55
2023-05-25T01:45:50.648Z,13.77
2023-05-25T01:48:31.424Z,15.65
2023-05-25T01:51:17.961Z,15.75
2023-05-25T01:53:48.010Z,12.60
2023-05-25T01:56:15.624Z,11.05
2023-05-25T01:58:43.558Z,11.50
2023-05-25T02:01:11.153Z,15.55
2023-05-25T02:03:39.206Z,12.60
2023-05-25T02:06:06.607Z,10.60
2023-05-25T02:08:35.555Z,14.02
2023-05-25T02:11:03.864Z,12.25
2023-05-25T02:13:31.254Z,15.82
2023-05-25T02:15:58.541Z,13.98
2023-05-25T02:18:26.578Z,11.05
2023-05-25T02:20:54.786Z,12.68
2023-05-25T02:23:22.038Z,12.02
2023-05-25T02:25:49.267Z,13.88
2023-05-25T02:28:16.661Z,14.20
2023-05-25T02:30:43.904Z,13.18
2023-05-25T02:33:11.628Z,10.18
2023-05-25T02:35:38.842Z,11.65
2023-05-25T02:38:06.094Z,17.27
2023-05-25T02:40:33.296Z,14.88
2023-05-25T02:43:00.568Z,13.60
2023-05-25T02:45:27.843Z,12.43
2023-05-25T02:47:55.073Z,12.98
2023-05-25T02:50:23.832Z,12.57
2023-05-25T02:52:55.057Z,15.27
2023-05-25T02:55:23.022Z,12.25
2023-05-25T02:57:50.634Z,13.30
2023-05-25T03:00:32.712Z,12.93
2023-05-25T03:03:00.083Z,15.43
2023-05-25T03:05:27.868Z,11.13
2023-05-25T03:07:55.106Z,15.85
2023-05-25T03:10:22.388Z,13.60
2023-05-25T03:12:49.632Z,11.00
2023-05-25T03:15:17.115Z,15.45
2023-05-25T03:17:45.026Z,14.07
2023-05-25T03:20:15.445Z,12.45
2023-05-25T03:22:45.436Z,10.32
2023-05-25T03:25:13.207Z,15.35
2023-05-25T03:27:40.537Z,12.70
2023-05-25T03:30:09.250Z,10.65
2023-05-25T03:32:36.567Z,14.73
2023-05-25T03:35:05.622Z,9.85
2023-05-25T03:37:33.411Z,12.20
2023-05-25T03:40:00.620Z,11.98
2023-05-25T03:42:27.900Z,11.77
2023-05-25T03:44:55.114Z,12.38
2023-05-25T03:47:22.397Z,12.13
2023-05-25T03:49:49.595Z,10.95
2023-05-25T03:52:16.792Z,10.88
2023-05-25T03:54:43.896Z,11.55
2023-05-25T03:57:11.105Z,11.60
2023-05-25T03:59:38.240Z,9.73
2023-05-25T04:02:05.507Z,12.48
2023-05-25T04:04:32.694Z,11.85
2023-05-25T04:06:59.924Z,11.70
2023-05-25T04:09:27.113Z,12.55
2023-05-25T04:11:54.376Z,13.13
2023-05-25T04:14:21.716Z,13.88
2023-05-25T04:16:49.205Z,11.95
2023-05-25T04:19:16.968Z,11.98
2023-05-25T04:21:44.119Z,12.90
2023-05-25T04:24:12.022Z,14.80
2023-05-25T04:26:40.262Z,13.98
2023-05-25T04:29:08.087Z,16.40
2023-05-25T04:31:47.270Z,12.48
2023-05-25T04:34:27.559Z,12.15
2023-05-25T04:37:05.517Z,11.88
2023-05-25T04:39:33.063Z,12.00
2023-05-25T04:42:04.397Z,14.30
2023-05-25T04:44:33.035Z,13.70
2023-05-25T04:47:01.571Z,14.43
2023-05-25T04:49:34.020Z,15.38
2023-05-25T04:52:01.452Z,12.98
2023-05-25T04:54:31.630Z,17.42
2023-05-25T04:57:01.699Z,17.20
2023-05-25T04:59:28.932Z,16.92
2023-05-25T05:01:56.260Z,17.73
2023-05-25T05:04:23.482Z,25.67
2023-05-25T05:06:51.464Z,18.67
2023-05-25T05:09:21.103Z,19.25
2023-05-25T05:11:49.009Z,21.98
2023-05-25T05:14:17.043Z,18.63
2023-05-25T05:16:47.913Z,20.33
2023-05-25T05:19:15.242Z,20.73
2023-05-25T05:21:42.764Z,18.05
2023-05-25T05:24:10.027Z,17.17
2023-05-25T05:26:55.436Z,15.18
2023-05-25T05:29:28.243Z,18.73
2023-05-25T05:31:56.466Z,16.77
2023-05-25T05:34:24.109Z,20.45
2023-05-25T05:36:58.067Z,22.20
2023-05-25T05:39:27.421Z,16.90
2023-05-25T05:41:55.398Z,21.73
2023-05-25T05:44:24.590Z,19.63
2023-05-25T05:46:59.882Z,15.48
2023-05-25T05:49:28.719Z,21.45
2023-05-25T05:51:56.012Z,20.45
2023-05-25T05:54:23.241Z,15.05
2023-05-25T05:56:51.222Z,18.77
2023-05-25T05:59:18.487Z,26.83
2023-05-25T06:01:45.721Z,20.15
2023-05-25T06:04:15.067Z,20.38
2023-05-25T06:06:43.379Z,24.33
2023-05-25T06:09:10.668Z,23.17
2023-05-25T06:11:40.174Z,17.77
2023-05-25T06:14:08.317Z,15.90
2023-05-25T06:16:36.713Z,20.38
2023-05-25T06:19:04.139Z,21.33
2023-05-25T06:21:31.399Z,15.77
2023-05-25T06:23:58.497Z,20.70
2023-05-25T06:26:25.976Z,16.50
2023-05-25T06:28:53.253Z,14.05
2023-05-25T06:31:20.984Z,17.83
2023-05-25T06:33:49.339Z,16.58
2023-05-25T06:36:16.669Z,15.98
2023-05-25T06:38:44.948Z,14.18
2023-05-25T06:41:15.149Z,15.40
2023-05-25T06:43:43.355Z,15.00
2023-05-25T06:46:18.365Z,15.48
2023-05-25T06:48:46.303Z,16.52
2023-05-25T06:51:13.672Z,16.67
2023-05-25T06:53:41.030Z,17.70
2023-05-25T06:56:08.322Z,15.20
2023-05-25T06:58:35.604Z,13.13
2023-05-25T07:01:03.240Z,15.23
2023-05-25T07:03:30.677Z,14.93
2023-05-25T07:05:57.844Z,16.73
2023-05-25T07:08:24.987Z,14.35
2023-05-25T07:10:52.231Z,15.00
2023-05-25T07:13:19.496Z,12.50
2023-05-25T07:15:47.386Z,13.90
2023-05-25T07:18:15.330Z,14.90
2023-05-25T07:20:44.036Z,14.68
2023-05-25T07:23:12.279Z,12.70
2023-05-25T07:25:40.056Z,13.90
2023-05-25T07:28:07.574Z,13.30
2023-05-25T07:30:34.897Z,13.20
2023-05-25T07:33:02.085Z,14.93
2023-05-25T07:35:29.402Z,15.52
2023-05-25T07:38:00.236Z,15.45
2023-05-25T07:40:27.804Z,13.70
2023-05-25T07:42:55.302Z,16.77
2023-05-25T07:45:22.648Z,15.10
2023-05-25T07:47:50.056Z,17.95
2023-05-25T07:50:17.427Z,16.38
2023-05-25T07:52:44.724Z,15.20
2023-05-25T07:55:12.181Z,15.18
2023-05-25T07:57:39.468Z,14.88
2023-05-25T08:00:08.199Z,14.85
2023-05-25T08:02:40.162Z,10.40
2023-05-25T08:05:07.703Z,13.38
2023-05-25T08:07:35.020Z,9.63
2023-05-25T08:10:02.824Z,14.15
2023-05-25T08:12:47.066Z,14.18
2023-05-25T08:17:42.673Z,12.32
2023-05-25T08:20:10.671Z,13.68
2023-05-25T08:22:38.021Z,14.05
2023-05-25T08:25:06.758Z,15.40
2023-05-25T08:27:35.802Z,13.32
2023-05-25T08:30:03.862Z,11.90
2023-05-25T08:32:30.979Z,9.98
2023-05-25T08:34:58.235Z,11.05
2023-05-25T08:37:26.380Z,9.60
2023-05-25T08:39:53.718Z,11.65
2023-05-25T08:42:21.545Z,19.25
2023-05-25T08:44:48.876Z,10.45
2023-05-25T08:47:17.823Z,10.55
2023-05-25T08:49:45.789Z,13.45
2023-05-25T08:52:15.500Z,12.00
2023-05-25T08:54:45.023Z,9.52
2023-05-25T08:57:15.077Z,16.25
2023-05-25T08:59:48.402Z,10.82
2023-05-25T09:02:24.840Z,12.30
2023-05-25T09:04:52.093Z,12.90
2023-05-25T09:07:19.793Z,10.77
2023-05-25T09:09:48.402Z,11.45
2023-05-25T09:12:16.142Z,12.88
2023-05-25T09:14:45.677Z,10.65
2023-05-25T09:17:13.817Z,10.00
2023-05-25T09:19:41.197Z,11.65
2023-05-25T09:24:41.454Z,11.50
2023-05-25T09:27:11.636Z,11.10
2023-05-25T09:29:39.160Z,10.32
2023-05-25T09:32:09.298Z,12.27
2023-05-25T09:34:36.725Z,9.70
2023-05-25T09:37:04.789Z,11.10
2023-05-25T09:39:32.211Z,7.53
2023-05-25T09:41:59.995Z,11.70
2023-05-25T09:44:27.765Z,10.45
2023-05-25T09:46:55.033Z,10.52
2023-05-25T09:49:22.714Z,10.30
2023-05-25T09:51:50.109Z,12.80
2023-05-25T09:54:17.402Z,10.32
2023-05-25T09:56:44.716Z,8.57
2023-05-25T09:59:12.498Z,11.38
2023-05-25T10:01:41.770Z,10.32
2023-05-25T10:04:09.178Z,13.15
2023-05-25T10:06:37.460Z,11.80
2023-05-25T10:09:05.382Z,10.45
2023-05-25T10:11:36.154Z,11.27
2023-05-25T10:14:07.329Z,12.02
2023-05-25T10:16:35.167Z,17.08
2023-05-25T10:19:05.378Z,9.70
2023-05-25T10:21:33.382Z,10.60
2023-05-25T10:24:05.788Z,11.38
2023-05-25T10:26:35.576Z,10.65
2023-05-25T10:29:04.723Z,8.40
2023-05-25T10:31:34.086Z,10.70
2023-05-25T10:34:02.055Z,9.88
2023-05-25T10:36:30.668Z,8.02
2023-05-25T10:38:58.504Z,13.30
2023-05-25T10:41:26.651Z,7.70
2023-05-25T10:43:55.141Z,7.13
2023-05-25T10:46:22.572Z,6.43
2023-05-25T10:49:00.592Z,8.63
2023-05-25T10:51:37.890Z,8.18
2023-05-25T10:54:05.398Z,7.88
2023-05-25T10:56:32.651Z,9.23
2023-05-25T10:59:00.364Z,7.15
2023-05-25T11:01:27.684Z,5.35
2023-05-25T11:03:58.849Z,8.65
2023-05-25T11:06:40.353Z,7.35
2023-05-25T11:09:07.736Z,7.68
2023-05-25T11:11:44.392Z,8.13
2023-05-25T11:14:24.881Z,11.05
2023-05-25T11:17:14.523Z,11.27
2023-05-25T11:19:43.344Z,12.65
2023-05-25T11:22:15.900Z,12.68
2023-05-25T11:24:45.109Z,12.73
2023-05-25T11:27:12.728Z,12.40
2023-05-25T11:29:40.968Z,9.85
2023-05-25T11:32:17.533Z,11.63
2023-05-25T11:34:48.131Z,14.95
2023-05-25T11:37:21.927Z,7.45
2023-05-25T11:39:50.061Z,11.02
2023-05-25T11:42:17.740Z,11.10
2023-05-25T11:44:44.784Z,12.90
2023-05-25T11:47:14.532Z,10.35
2023-05-25T11:49:45.899Z,10.98
2023-05-25T11:52:19.985Z,11.38
2023-05-25T11:54:47.786Z,9.48
2023-05-25T11:57:19.032Z,9.20
2023-05-25T11:59:52.801Z,9.95
2023-05-25T12:02:20.083Z,12.77
2023-05-25T12:05:03.655Z,10.38
2023-05-25T12:07:31.834Z,11.32
2023-05-25T12:10:09.595Z,9.27
2023-05-25T12:12:47.168Z,7.82
2023-05-25T12:15:17.614Z,12.38
2023-05-25T12:17:46.776Z,11.10
2023-05-25T12:20:15.480Z,9.95
2023-05-25T12:22:44.034Z,10.35
2023-05-25T12:25:12.485Z,7.93
2023-05-25T12:27:40.351Z,7.75
2023-05-25T12:30:11.156Z,14.50
2023-05-25T12:32:53.258Z,12.48
2023-05-25T12:35:20.603Z,13.07
2023-05-25T12:37:48.083Z,14.55
2023-05-25T12:40:20.521Z,13.43
2023-05-25T12:45:22.759Z,7.53
2023-05-25T12:47:50.246Z,12.35
2023-05-25T12:50:17.985Z,11.40
2023-05-25T12:52:46.640Z,19.50
2023-05-25T12:55:27.459Z,12.77
2023-05-25T12:57:58.828Z,10.82
2023-05-25T13:00:32.085Z,17.38
2023-05-25T13:02:59.754Z,11.55
2023-05-25T13:05:28.525Z,15.38
2023-05-25T13:07:56.779Z,12.85
2023-05-25T13:10:24.454Z,11.48
2023-05-25T13:12:53.891Z,12.32
2023-05-25T13:15:21.872Z,13.13
2023-05-25T13:17:50.570Z,14.77
2023-05-25T13:20:22.555Z,15.50
2023-05-25T13:22:50.853Z,13.13
2023-05-25T13:25:18.095Z,14.07
2023-05-25T13:27:46.356Z,15.02
2023-05-25T13:30:13.737Z,12.70
2023-05-25T13:32:42.001Z,18.23
2023-05-25T13:35:12.478Z,14.80
2023-05-25T13:37:39.612Z,14.75
2023-05-25T13:40:06.943Z,16.38
2023-05-25T13:42:34.073Z,20.10
2023-05-25T13:45:01.193Z,16.10
2023-05-25T13:47:28.738Z,17.30
2023-05-25T13:49:56.058Z,15.50
2023-05-25T13:52:23.310Z,16.67
2023-05-25T13:54:50.510Z,14.48
2023-05-25T13:57:17.745Z,11.80
2023-05-25T13:59:44.852Z,14.43
2023-05-25T14:02:12.089Z,16.27
2023-05-25T14:04:39.398Z,17.55
2023-05-25T14:07:06.559Z,14.98
2023-05-25T14:09:33.728Z,13.82
2023-05-25T14:12:01.463Z,18.80
2023-05-25T14:14:32.273Z,16.33
2023-05-25T14:17:01.355Z,13.93
2023-05-25T14:19:28.876Z,15.02
2023-05-25T14:22:11.766Z,17.90
2023-05-25T14:24:40.246Z,16.25
2023-05-25T14:27:07.507Z,16.45
2023-05-25T14:29:34.977Z,16.15
2023-05-25T14:32:02.437Z,17.75
2023-05-25T14:34:29.872Z,15.95
2023-05-25T14:36:57.168Z,12.55
2023-05-25T14:39:24.375Z,19.00
2023-05-25T14:41:51.495Z,14.45
2023-05-25T14:44:18.587Z,11.90
2023-05-25T14:46:46.150Z,14.75
2023-05-25T14:49:16.958Z,19.00
2023-05-25T14:51:44.134Z,13.95
2023-05-25T14:54:13.442Z,17.60
2023-05-25T14:56:40.719Z,16.88
2023-05-25T14:59:08.085Z,13.35
2023-05-25T15:01:35.426Z,16.95
2023-05-25T15:04:02.695Z,12.27
2023-05-25T15:06:30.035Z,17.92
2023-05-25T15:08:57.238Z,16.23
2023-05-25T15:11:24.456Z,13.85
2023-05-25T15:13:51.710Z,19.17
2023-05-25T15:16:19.025Z,14.75
2023-05-25T15:18:46.242Z,12.32
2023-05-25T15:21:13.376Z,15.98
2023-05-25T15:23:41.364Z,17.52
2023-05-25T15:26:11.426Z,19.73
2023-05-25T15:28:38.685Z,17.70
2023-05-25T15:31:05.981Z,14.60
2023-05-25T15:33:49.577Z,16.17
2023-05-25T15:36:19.253Z,17.85
2023-05-25T15:38:49.237Z,13.88
2023-05-25T15:41:17.152Z,16.90
2023-05-25T15:43:52.530Z,17.27
2023-05-25T15:46:19.910Z,16.85
2023-05-25T15:48:47.146Z,17.60
2023-05-25T15:51:14.371Z,16.23
2023-05-25T15:53:41.538Z,16.58
2023-05-25T15:56:08.797Z,22.52
2023-05-25T15:58:35.889Z,14.45
2023-05-25T16:01:03.563Z,15.25
2023-05-25T16:03:30.814Z,16.33
2023-05-25T16:05:58.440Z,17.85
2023-05-25T16:08:25.569Z,20.65
2023-05-25T16:10:52.659Z,15.65
2023-05-25T16:13:20.002Z,16.38
2023-05-25T16:15:47.484Z,16.25
2023-05-25T16:18:16.555Z,18.40
2023-05-25T16:20:44.186Z,17.45
2023-05-25T16:23:11.463Z,18.58
2023-05-25T16:25:38.662Z,16.15
2023-05-25T16:28:05.870Z,19.63
2023-05-25T16:30:33.029Z,15.88
2023-05-25T16:33:00.331Z,17.40
2023-05-25T16:35:27.565Z,20.55
2023-05-25T16:37:54.668Z,23.40
2023-05-25T16:40:21.919Z,20.55
2023-05-25T16:42:49.092Z,14.82
2023-05-25T16:45:16.326Z,19.20
2023-05-25T16:47:43.551Z,20.27
2023-05-25T16:50:10.790Z,15.63
2023-05-25T16:52:37.935Z,21.48
2023-05-25T16:55:05.395Z,17.35
2023-05-25T16:57:32.571Z,20.77
2023-05-25T16:59:59.805Z,18.45
2023-05-25T17:02:27.158Z,25.23
2023-05-25T17:04:54.555Z,18.67
2023-05-25T17:07:21.793Z,18.42
2023-05-25T17:09:48.935Z,20.15
2023-05-25T17:12:16.798Z,21.23
2023-05-25T17:14:43.971Z,16.42
2023-05-25T17:17:11.228Z,20.20
2023-05-25T17:19:38.336Z,15.20
2023-05-25T17:22:05.740Z,20.90
2023-05-25T17:24:33.569Z,18.02
2023-05-25T17:27:01.772Z,14.95
2023-05-25T17:29:28.902Z,20.05
2023-05-25T17:31:56.149Z,22.17
2023-05-25T17:34:23.398Z,19.38
2023-05-25T17:36:50.622Z,19.75
2023-05-25T17:39:17.909Z,21.35
2023-05-25T17:41:45.582Z,16.13
2023-05-25T17:44:12.819Z,18.70
2023-05-25T17:46:40.065Z,18.20
2023-05-25T17:49:07.392Z,23.15
2023-05-25T17:51:34.595Z,22.92
2023-05-25T17:54:01.915Z,17.73
2023-05-25T17:56:29.128Z,15.77
2023-05-25T17:58:56.321Z,19.85
2023-05-25T18:01:23.694Z,21.30
2023-05-25T18:03:52.353Z,18.92
2023-05-25T18:06:19.688Z,16.30
2023-05-25T18:08:46.928Z,18.10
2023-05-25T18:11:14.232Z,18.98
2023-05-25T18:13:41.414Z,18.98
2023-05-25T18:16:08.572Z,16.13
2023-05-25T18:18:35.959Z,22.63
2023-05-25T18:21:03.205Z,19.50
2023-05-25T18:23:30.288Z,14.82
2023-05-25T18:25:57.476Z,18.60
2023-05-25T18:28:24.592Z,19.13
2023-05-25T18:30:51.728Z,18.98
2023-05-25T18:33:18.902Z,19.80
2023-05-25T18:35:46.703Z,18.55
2023-05-25T18:38:14.059Z,17.52
2023-05-25T18:40:41.167Z,17.58
2023-05-25T18:43:08.363Z,18.77
2023-05-25T18:45:35.634Z,19.02
2023-05-25T18:48:07.406Z,20.85
2023-05-25T18:50:35.485Z,20.13
2023-05-25T18:53:02.711Z,14.63
2023-05-25T18:55:29.897Z,17.65
2023-05-25T18:57:57.393Z,16.70
2023-05-25T19:00:24.869Z,22.17
2023-05-25T19:02:52.186Z,20.98
2023-05-25T19:05:21.520Z,18.08
2023-05-25T19:10:18.902Z,20.15
2023-05-25T19:12:46.062Z,16.52
2023-05-25T19:15:13.516Z,17.77
2023-05-25T19:17:40.770Z,16.90
2023-05-25T19:20:08.515Z,19.73
2023-05-25T19:22:36.225Z,21.92
2023-05-25T19:25:03.453Z,16.20
2023-05-25T19:27:30.699Z,19.13
2023-05-25T19:29:59.192Z,23.77
2023-05-25T19:32:26.490Z,22.65
2023-05-25T19:34:53.776Z,19.08
2023-05-25T19:37:20.869Z,22.40
2023-05-25T19:39:48.528Z,21.20
2023-05-25T19:42:15.775Z,15.57
2023-05-25T19:44:45.278Z,18.33
2023-05-25T19:47:12.426Z,20.33
2023-05-25T19:49:39.613Z,18.80
2023-05-25T19:52:07.092Z,17.33
2023-05-25T19:54:34.620Z,20.45
2023-05-25T19:57:02.830Z,23.58
2023-05-25T19:59:31.386Z,22.13
2023-05-25T20:01:58.920Z,20.23
2023-05-25T20:04:26.414Z,18.17
2023-05-25T20:06:54.395Z,20.58
2023-05-25T20:09:29.908Z,16.70
2023-05-25T20:11:58.236Z,19.98
2023-05-25T20:14:25.389Z,19.20
2023-05-25T20:16:55.081Z,15.52
2023-05-25T20:19:23.361Z,16.65
2023-05-25T20:21:50.864Z,18.30
2023-05-25T20:24:18.157Z,15.57
2023-05-25T20:26:45.469Z,16.58
2023-05-25T20:29:12.696Z,20.67
2023-05-25T20:31:40.538Z,19.02
2023-05-25T20:34:07.855Z,15.55
2023-05-25T20:36:35.064Z,18.15
2023-05-25T20:39:03.308Z,17.65
2023-05-25T20:41:30.648Z,16.33
2023-05-25T20:43:58.084Z,14.68
2023-05-25T20:46:26.135Z,21.17
2023-05-25T20:48:53.632Z,20.70
2023-05-25T20:51:21.882Z,20.33
2023-05-25T20:53:49.158Z,16.33
2023-05-25T20:56:16.570Z,18.73
2023-05-25T20:58:44.032Z,19.33
2023-05-25T21:01:11.518Z,17.60
2023-05-25T21:03:38.812Z,20.17
2023-05-25T21:06:06.275Z,22.52
2023-05-25T21:08:33.847Z,19.02
2023-05-25T21:11:01.077Z,19.30
2023-05-25T21:13:28.381Z,14.73
2023-05-25T21:15:55.826Z,20.23
2023-05-25T21:18:23.111Z,21.08
2023-05-25T21:20:50.662Z,15.10
2023-05-25T21:23:17.891Z,16.48
2023-05-25T21:25:45.321Z,26.40
2023-05-25T21:28:12.782Z,15.68
2023-05-25T21:30:39.883Z,15.70
2023-05-25T21:33:07.078Z,15.25
2023-05-25T21:35:34.417Z,15.32
2023-05-25T21:38:01.664Z,17.27
2023-05-25T21:40:28.808Z,24.35
2023-05-25T21:42:55.971Z,18.00
2023-05-25T21:45:23.094Z,18.35
2023-05-25T21:47:50.528Z,15.77
2023-05-25T21:50:17.884Z,21.75
2023-05-25T21:52:45.152Z,19.92
2023-05-25T21:55:12.529Z,13.35
2023-05-25T21:57:39.692Z,16.25
2023-05-25T22:00:07.788Z,16.00
2023-05-25T22:02:41.147Z,23.85
2023-05-25T22:05:08.465Z,14.13
2023-05-25T22:07:35.655Z,13.82
2023-05-25T22:10:02.981Z,19.77
2023-05-25T22:12:30.285Z,18.17
2023-05-25T22:14:57.437Z,18.13
2023-05-25T22:17:24.631Z,17.88
2023-05-25T22:20:03.178Z,23.45
2023-05-25T22:22:34.529Z,17.08
2023-05-25T22:25:01.915Z,15.18
2023-05-25T22:27:29.141Z,20.08
2023-05-25T22:29:56.698Z,18.98
2023-05-25T22:32:24.127Z,18.75
2023-05-25T22:34:51.572Z,21.23
2023-05-25T22:37:18.861Z,23.15
2023-05-25T22:39:46.111Z,25.95
2023-05-25T22:42:13.363Z,17.42
2023-05-25T22:44:40.540Z,21.85
2023-05-25T22:47:07.787Z,21.38
2023-05-25T22:49:41.289Z,19.35
2023-05-25T22:52:11.514Z,16.33
2023-05-25T22:54:38.706Z,20.20
2023-05-25T22:57:06.355Z,17.80
2023-05-25T22:59:33.689Z,18.33
2023-05-25T23:02:00.995Z,17.08
2023-05-25T23:04:28.416Z,23.67
2023-05-25T23:06:55.646Z,16.13
2023-05-25T23:09:22.834Z,20.60
2023-05-25T23:11:50.168Z,21.92
2023-05-25T23:14:17.415Z,15.07
2023-05-25T23:16:48.538Z,16.65
2023-05-25T23:19:16.759Z,22.65
2023-05-25T23:21:44.384Z,23.85
2023-05-25T23:24:11.580Z,16.77
2023-05-25T23:26:38.768Z,13.73
2023-05-25T23:29:06.018Z,16.77
2023-05-25T23:31:33.315Z,20.20
2023-05-25T23:34:00.498Z,17.30
2023-05-25T23:36:28.229Z,16.40
2023-05-25T23:38:55.900Z,20.45
2023-05-25T23:41:23.097Z,19.58
2023-05-25T23:43:50.368Z,16.98
2023-05-25T23:46:17.655Z,14.85
2023-05-25T23:48:45.567Z,17.25
2023-05-25T23:51:12.962Z,20.40
2023-05-25T23:53:40.279Z,22.85
2023-05-25T23:56:07.635Z,24.90
2023-05-25T23:58:34.956Z,17.40
